createdAt,value
2018-12-18T00:00:38.420Z,9.36
2018-12-18T00:01:36.973Z,9.46
2018-12-18T00:02:35.527Z,9.5
2018-12-18T00:03:39.265Z,9.5
2018-12-18T00:04:32.642Z,9.56
2018-12-18T00:05:31.418Z,9.5
2018-12-18T00:06:30.218Z,9.5
2018-12-18T00:07:28.743Z,9.4
2018-12-18T00:08:27.417Z,9.38
2018-12-18T00:09:26.160Z,9.5
2018-12-18T00:10:24.682Z,9.36
2018-12-18T00:11:23.201Z,9.38
2018-12-18T00:12:21.717Z,9.36
2018-12-18T00:13:20.259Z,9.51
2018-12-18T00:14:18.852Z,9.51
2018-12-18T00:15:17.585Z,9.42
2018-12-18T00:16:16.326Z,9.39
2018-12-18T00:17:15.003Z,9.38
2018-12-18T00:18:13.762Z,9.26
2018-12-18T00:19:12.311Z,9.28
2018-12-18T00:20:10.857Z,9.24
2018-12-18T00:21:09.341Z,9.28
2018-12-18T00:22:07.893Z,9.26
2018-12-18T00:23:06.439Z,9.21
2018-12-18T00:24:05.167Z,9.26
2018-12-18T00:25:04.038Z,9.23
2018-12-18T00:26:02.600Z,9.2
2018-12-18T00:27:01.277Z,9.14
2018-12-18T00:27:59.863Z,9.18
2018-12-18T00:28:58.414Z,9.17
2018-12-18T00:29:56.957Z,9.32
2018-12-18T00:30:55.517Z,9.24
2018-12-18T00:31:54.029Z,9.14
2018-12-18T00:32:52.543Z,9.1
2018-12-18T00:33:51.089Z,9.21
2018-12-18T00:34:49.743Z,9.18
2018-12-18T00:35:48.270Z,9.02
2018-12-18T00:36:46.830Z,9.17
2018-12-18T00:37:45.831Z,9.13
2018-12-18T00:38:44.331Z,9.13
2018-12-18T00:39:42.914Z,8.99
2018-12-18T00:41:00.308Z,8.96
2018-12-18T00:41:58.846Z,8.92
2018-12-18T00:42:57.521Z,8.95
2018-12-18T00:43:56.149Z,8.94
2018-12-18T00:44:54.644Z,8.87
2018-12-18T00:45:53.509Z,8.91
2018-12-18T00:46:52.157Z,8.95
2018-12-18T00:47:50.715Z,8.92
2018-12-18T00:48:49.237Z,8.98
2018-12-18T00:49:47.803Z,8.95
2018-12-18T00:50:46.320Z,9.11
2018-12-18T00:51:44.844Z,9.13
2018-12-18T00:52:43.380Z,9.17
2018-12-18T00:53:41.892Z,9.23
2018-12-18T00:54:40.485Z,9.13
2018-12-18T00:55:39.143Z,9.21
2018-12-18T00:56:38.026Z,9.15
2018-12-18T00:57:36.557Z,9.29
2018-12-18T00:58:35.258Z,9.28
2018-12-18T00:59:33.885Z,9.29
2018-12-18T01:00:32.427Z,9.29
2018-12-18T01:01:30.992Z,9.33
2018-12-18T01:02:29.494Z,9.42
2018-12-18T01:03:28.029Z,9.29
2018-12-18T01:04:26.601Z,9.32
2018-12-18T01:05:25.304Z,9.38
2018-12-18T01:06:24.010Z,9.42
2018-12-18T01:07:22.543Z,9.38
2018-12-18T01:08:21.348Z,9.39
2018-12-18T01:09:20.004Z,9.28
2018-12-18T01:10:18.538Z,9.13
2018-12-18T01:11:17.135Z,9.14
2018-12-18T01:12:15.677Z,9.08
2018-12-18T01:13:14.226Z,9.14
2018-12-18T01:14:12.743Z,9.02
2018-12-18T01:15:11.384Z,9.08
2018-12-18T01:16:10.116Z,9.04
2018-12-18T01:17:08.648Z,9.14
2018-12-18T01:18:07.513Z,9.02
2018-12-18T01:19:06.143Z,9.01
2018-12-18T01:20:04.682Z,8.96
2018-12-18T01:21:03.209Z,8.99
2018-12-18T01:22:01.837Z,8.95
2018-12-18T01:23:00.369Z,8.95
2018-12-18T01:23:58.900Z,8.99
2018-12-18T01:24:57.447Z,8.89
2018-12-18T01:25:55.972Z,8.94
2018-12-18T01:26:54.514Z,8.96
2018-12-18T01:27:53.206Z,8.92
2018-12-18T01:28:52.048Z,8.81
2018-12-18T01:29:50.585Z,8.87
2018-12-18T01:30:49.258Z,8.92
2018-12-18T01:31:47.947Z,8.81
2018-12-18T01:32:46.475Z,8.86
2018-12-18T01:33:44.995Z,8.91
2018-12-18T01:34:43.558Z,8.91
2018-12-18T01:35:42.106Z,8.87
2018-12-18T01:36:40.637Z,8.86
2018-12-18T01:37:39.307Z,8.79
2018-12-18T01:38:37.947Z,8.81
2018-12-18T01:39:36.474Z,8.77
2018-12-18T01:40:35.026Z,8.86
2018-12-18T01:41:33.803Z,8.8
2018-12-18T01:42:32.359Z,8.81
2018-12-18T01:43:30.932Z,8.79
2018-12-18T01:44:29.658Z,8.73
2018-12-18T01:45:28.245Z,8.76
2018-12-18T01:46:26.790Z,8.73
2018-12-18T01:47:25.307Z,8.63
2018-12-18T01:48:23.864Z,8.76
2018-12-18T01:49:22.391Z,8.77
2018-12-18T01:50:21.052Z,8.65
2018-12-18T01:51:19.951Z,8.74
2018-12-18T01:54:00.292Z,8.53
2018-12-18T01:54:58.851Z,8.61
2018-12-18T01:55:57.804Z,8.65
2018-12-18T01:56:56.350Z,8.63
2018-12-18T01:57:55.065Z,8.63
2018-12-18T01:58:53.759Z,8.7
2018-12-18T01:59:52.314Z,8.59
2018-12-18T02:00:50.861Z,8.68
2018-12-18T02:01:49.394Z,8.66
2018-12-18T02:02:47.946Z,8.65
2018-12-18T02:03:46.467Z,8.76
2018-12-18T02:04:45.043Z,8.61
2018-12-18T02:05:43.782Z,8.65
2018-12-18T02:06:42.516Z,8.76
2018-12-18T02:07:41.250Z,8.63
2018-12-18T02:08:39.908Z,8.74
2018-12-18T02:09:38.465Z,8.83
2018-12-18T02:10:37.023Z,8.83
2018-12-18T02:11:35.554Z,8.84
2018-12-18T02:12:34.095Z,8.81
2018-12-18T02:13:32.610Z,8.83
2018-12-18T02:14:31.310Z,8.87
2018-12-18T02:15:30.078Z,8.92
2018-12-18T02:16:28.618Z,8.86
2018-12-18T02:17:27.400Z,8.94
2018-12-18T02:18:26.057Z,8.89
2018-12-18T02:19:24.588Z,8.81
2018-12-18T02:20:23.139Z,8.92
2018-12-18T02:21:21.648Z,8.84
2018-12-18T02:22:20.203Z,8.8
2018-12-18T02:23:18.771Z,8.8
2018-12-18T02:24:17.417Z,8.73
2018-12-18T02:25:15.909Z,8.86
2018-12-18T02:26:14.434Z,8.63
2018-12-18T02:27:13.112Z,8.68
2018-12-18T02:28:11.957Z,8.66
2018-12-18T02:29:10.531Z,8.56
2018-12-18T02:30:09.231Z,8.65
2018-12-18T02:31:07.882Z,8.56
2018-12-18T02:32:06.423Z,8.45
2018-12-18T02:33:05.084Z,8.47
2018-12-18T02:34:03.736Z,8.5
2018-12-18T02:35:02.276Z,8.4
2018-12-18T02:36:00.799Z,8.41
2018-12-18T02:36:59.669Z,8.37
2018-12-18T02:37:58.238Z,8.36
2018-12-18T02:38:56.789Z,8.48
2018-12-18T02:39:55.459Z,8.44
2018-12-18T02:40:54.034Z,8.43
2018-12-18T02:41:52.563Z,8.38
2018-12-18T02:42:51.150Z,8.41
2018-12-18T02:43:49.774Z,8.38
2018-12-18T02:44:48.302Z,8.37
2018-12-18T02:45:46.828Z,8.37
2018-12-18T02:46:45.579Z,8.37
2018-12-18T02:47:44.149Z,8.43
2018-12-18T02:50:24.515Z,8.41
2018-12-18T02:51:23.070Z,8.36
2018-12-18T02:52:21.619Z,8.34
2018-12-18T02:53:20.200Z,8.38
2018-12-18T02:54:18.829Z,8.29
2018-12-18T02:55:17.517Z,8.25
2018-12-18T02:56:16.169Z,8.26
2018-12-18T02:57:14.715Z,8.29
2018-12-18T02:58:13.532Z,8.37
2018-12-18T02:59:12.266Z,8.38
2018-12-18T03:00:10.796Z,8.28
2018-12-18T03:01:09.324Z,8.29
2018-12-18T03:02:07.890Z,8.3
2018-12-18T03:03:06.432Z,8.3
2018-12-18T03:04:05.032Z,8.28
2018-12-18T03:05:03.825Z,8.26
2018-12-18T03:06:02.397Z,8.28
2018-12-18T03:07:01.110Z,8.25
2018-12-18T03:11:48.861Z,8.23
2018-12-18T03:12:47.584Z,8.23
2018-12-18T03:13:46.124Z,8.23
2018-12-18T03:14:44.724Z,8.28
2018-12-18T03:15:43.442Z,8.2
2018-12-18T03:16:42.123Z,8.11
2018-12-18T03:17:40.651Z,8.16
2018-12-18T03:18:39.450Z,8.19
2018-12-18T03:19:38.097Z,8.22
2018-12-18T03:20:36.626Z,8.12
2018-12-18T03:21:35.176Z,8.2
2018-12-18T03:22:33.718Z,8.18
2018-12-18T03:23:32.243Z,8.19
2018-12-18T03:24:30.790Z,8.2
2018-12-18T03:25:29.338Z,8.16
2018-12-18T03:26:27.899Z,8.16
2018-12-18T03:27:26.446Z,8.16
2018-12-18T03:28:25.092Z,8.18
2018-12-18T03:29:23.973Z,8.16
2018-12-18T03:30:22.520Z,8.19
2018-12-18T03:31:21.168Z,8.15
2018-12-18T03:32:19.817Z,8.22
2018-12-18T03:33:18.364Z,8.26
2018-12-18T03:34:16.909Z,8.29
2018-12-18T03:35:15.461Z,8.34
2018-12-18T03:36:14.042Z,8.4
2018-12-18T03:37:12.581Z,8.34
2018-12-18T03:38:11.372Z,8.43
2018-12-18T03:39:10.155Z,8.34
2018-12-18T03:40:08.662Z,8.43
2018-12-18T03:41:07.361Z,8.3
2018-12-18T03:42:06.026Z,8.29
2018-12-18T03:43:04.569Z,8.26
2018-12-18T03:44:03.108Z,8.25
2018-12-18T03:45:01.806Z,8.2
2018-12-18T03:46:00.357Z,8.19
2018-12-18T03:48:40.519Z,8.16
2018-12-18T03:49:39.330Z,8.16
2018-12-18T03:50:38.025Z,8.15
2018-12-18T03:51:36.593Z,8.07
2018-12-18T03:52:35.154Z,8.05
2018-12-18T03:53:33.745Z,8.04
2018-12-18T03:54:32.304Z,8.12
2018-12-18T03:55:30.843Z,8.11
2018-12-18T03:56:29.519Z,8.15
2018-12-18T03:57:28.213Z,8.15
2018-12-18T03:58:26.768Z,8.04
2018-12-18T03:59:25.514Z,8.01
2018-12-18T04:00:24.482Z,8.05
2018-12-18T04:01:23.029Z,8.07
2018-12-18T04:02:21.874Z,8.08
2018-12-18T04:03:20.464Z,8.08
2018-12-18T04:04:19.005Z,8.01
2018-12-18T04:05:17.748Z,8.02
2018-12-18T04:06:16.290Z,8.07
2018-12-18T04:07:14.825Z,8.01
2018-12-18T04:08:13.388Z,7.98
2018-12-18T04:09:11.913Z,7.95
2018-12-18T04:10:10.460Z,7.89
2018-12-18T04:11:09.145Z,7.9
2018-12-18T04:12:07.753Z,7.86
2018-12-18T04:13:06.635Z,7.86
2018-12-18T04:14:04.927Z,7.86
2018-12-18T04:15:03.727Z,7.77
2018-12-18T04:16:02.282Z,7.77
2018-12-18T04:17:00.811Z,7.77
2018-12-18T04:17:59.472Z,7.8
2018-12-18T04:18:58.014Z,7.72
2018-12-18T04:19:56.577Z,7.77
2018-12-18T04:20:55.137Z,7.82
2018-12-18T04:21:53.831Z,7.9
2018-12-18T04:22:52.377Z,7.83
2018-12-18T04:23:50.915Z,7.86
2018-12-18T04:24:49.921Z,7.85
2018-12-18T04:25:48.468Z,7.79
2018-12-18T04:26:47.031Z,7.71
2018-12-18T04:27:45.666Z,7.69
2018-12-18T04:28:44.213Z,7.75
2018-12-18T04:29:42.733Z,7.71
2018-12-18T04:30:41.426Z,7.72
2018-12-18T04:31:40.131Z,7.75
2018-12-18T04:32:38.677Z,7.75
2018-12-18T04:33:37.561Z,7.74
2018-12-18T04:34:42.633Z,7.69
2018-12-18T04:35:34.779Z,7.75
2018-12-18T04:36:33.323Z,7.72
2018-12-18T04:37:31.856Z,7.69
2018-12-18T04:38:30.420Z,7.8
2018-12-18T04:39:28.957Z,7.69
2018-12-18T04:40:27.492Z,7.68
2018-12-18T04:41:26.123Z,7.64
2018-12-18T04:42:24.677Z,7.64
2018-12-18T04:43:23.320Z,7.8
2018-12-18T04:44:22.075Z,7.71
2018-12-18T04:45:20.594Z,7.63
2018-12-18T04:46:19.237Z,7.58
2018-12-18T04:47:17.867Z,7.5
2018-12-18T04:48:16.412Z,7.58
2018-12-18T04:49:14.953Z,7.53
2018-12-18T04:50:13.482Z,7.57
2018-12-18T04:51:12.102Z,7.53
2018-12-18T04:52:10.599Z,7.5
2018-12-18T04:53:09.147Z,7.52
2018-12-18T04:54:07.875Z,7.52
2018-12-18T04:55:06.435Z,7.52
2018-12-18T04:56:04.980Z,7.52
2018-12-18T04:57:03.906Z,7.49
2018-12-18T04:58:02.444Z,7.48
2018-12-18T04:59:00.968Z,7.57
2018-12-18T04:59:59.649Z,7.53
2018-12-18T05:00:58.199Z,7.57
2018-12-18T05:01:56.768Z,7.63
2018-12-18T05:02:55.308Z,7.67
2018-12-18T05:03:54.055Z,7.64
2018-12-18T05:04:52.653Z,7.52
2018-12-18T05:05:51.264Z,7.55
2018-12-18T05:06:49.981Z,7.53
2018-12-18T05:07:48.506Z,7.52
2018-12-18T05:08:47.101Z,7.55
2018-12-18T05:09:45.776Z,7.53
2018-12-18T05:10:44.412Z,7.5
2018-12-18T05:11:42.925Z,7.48
2018-12-18T05:12:41.464Z,7.52
2018-12-18T05:13:40.005Z,7.52
2018-12-18T05:14:38.552Z,7.57
2018-12-18T05:15:37.205Z,7.46
2018-12-18T05:16:35.917Z,7.48
2018-12-18T05:17:34.440Z,7.46
2018-12-18T05:18:32.981Z,7.42
2018-12-18T05:19:31.830Z,7.39
2018-12-18T05:20:30.384Z,7.32
2018-12-18T05:21:28.916Z,7.21
2018-12-18T05:22:27.565Z,7.24
2018-12-18T05:23:26.114Z,7.28
2018-12-18T05:24:24.636Z,7.27
2018-12-18T05:25:23.178Z,7.28
2018-12-18T05:26:21.729Z,7.37
2018-12-18T05:27:20.237Z,7.3
2018-12-18T05:28:18.782Z,7.37
2018-12-18T05:29:17.522Z,7.27
2018-12-18T05:30:16.174Z,7.4
2018-12-18T05:31:14.723Z,7.3
2018-12-18T05:32:13.508Z,7.3
2018-12-18T05:33:12.190Z,7.35
2018-12-18T05:34:10.703Z,7.28
2018-12-18T05:35:09.228Z,7.34
2018-12-18T05:36:07.792Z,7.31
2018-12-18T05:37:06.375Z,7.39
2018-12-18T05:38:04.860Z,7.37
2018-12-18T05:39:03.403Z,7.28
2018-12-18T05:40:01.927Z,7.3
2018-12-18T05:41:00.497Z,7.3
2018-12-18T05:41:59.209Z,7.24
2018-12-18T05:42:58.044Z,7.2
2018-12-18T05:43:56.592Z,7.27
2018-12-18T05:44:55.236Z,7.25
2018-12-18T05:45:53.952Z,7.3
2018-12-18T05:46:52.489Z,7.25
2018-12-18T05:47:51.085Z,7.25
2018-12-18T05:48:49.591Z,7.24
2018-12-18T05:49:48.115Z,7.21
2018-12-18T05:50:46.659Z,7.23
2018-12-18T05:51:45.422Z,7.17
2018-12-18T05:53:46.146Z,7.09
2018-12-18T05:54:44.918Z,7.09
2018-12-18T05:55:43.775Z,7.12
2018-12-18T05:56:42.339Z,7.15
2018-12-18T05:57:40.873Z,7.05
2018-12-18T05:58:39.550Z,7.07
2018-12-18T05:59:38.110Z,7.1
2018-12-18T06:00:36.639Z,7.07
2018-12-18T06:01:35.171Z,7.09
2018-12-18T06:02:33.726Z,7.03
2018-12-18T06:03:32.268Z,7.17
2018-12-18T06:04:30.807Z,7.2
2018-12-18T06:05:29.579Z,7.13
2018-12-18T06:06:28.382Z,7.1
2018-12-18T06:07:26.920Z,7.15
2018-12-18T06:08:25.638Z,7.16
2018-12-18T06:09:24.265Z,7.07
2018-12-18T06:10:22.822Z,7.1
2018-12-18T06:11:21.408Z,7.07
2018-12-18T06:12:20.019Z,6.97
2018-12-18T06:13:18.567Z,6.99
2018-12-18T06:14:17.068Z,7.05
2018-12-18T06:15:16.018Z,6.99
2018-12-18T06:16:14.559Z,6.98
2018-12-18T06:17:13.148Z,7.05
2018-12-18T06:18:11.908Z,7.15
2018-12-18T06:19:10.422Z,7.06
2018-12-18T06:20:08.964Z,7.09
2018-12-18T06:21:07.513Z,6.99
2018-12-18T06:22:06.042Z,7.07
2018-12-18T06:23:04.622Z,7.03
2018-12-18T06:24:03.328Z,7.05
2018-12-18T06:25:02.097Z,7.03
2018-12-18T06:26:00.644Z,7.03
2018-12-18T06:26:59.356Z,6.94
2018-12-18T06:27:57.993Z,7.09
2018-12-18T06:28:56.556Z,7.06
2018-12-18T06:29:55.084Z,7.07
2018-12-18T06:30:53.622Z,7.05
2018-12-18T06:31:52.216Z,7.05
2018-12-18T06:32:50.722Z,6.97
2018-12-18T06:33:49.396Z,7.05
2018-12-18T06:34:48.207Z,6.98
2018-12-18T06:35:46.751Z,6.91
2018-12-18T06:36:45.591Z,6.94
2018-12-18T06:37:44.172Z,6.88
2018-12-18T06:38:42.684Z,6.98
2018-12-18T06:39:41.252Z,6.89
2018-12-18T06:40:39.787Z,7.05
2018-12-18T06:41:38.328Z,7.09
2018-12-18T06:42:36.838Z,7.17
2018-12-18T06:43:35.424Z,7.1
2018-12-18T06:44:34.025Z,7.06
2018-12-18T06:45:32.540Z,7.12
2018-12-18T06:46:31.164Z,6.99
2018-12-18T06:47:29.946Z,6.89
2018-12-18T06:48:28.468Z,6.91
2018-12-18T06:49:27.116Z,6.94
2018-12-18T06:50:25.830Z,6.87
2018-12-18T06:51:24.394Z,6.81
2018-12-18T06:52:22.909Z,6.77
2018-12-18T06:53:21.446Z,6.8
2018-12-18T06:54:20.004Z,6.81
2018-12-18T06:55:18.536Z,6.74
2018-12-18T06:56:17.090Z,6.66
2018-12-18T06:57:15.803Z,6.69
2018-12-18T06:58:14.394Z,6.71
2018-12-18T06:59:12.918Z,6.67
2018-12-18T07:00:11.911Z,6.67
2018-12-18T07:01:10.482Z,6.61
2018-12-18T07:02:09.055Z,6.61
2018-12-18T07:03:08.185Z,6.67
2018-12-18T07:04:06.759Z,6.67
2018-12-18T07:05:05.447Z,6.67
2018-12-18T07:06:04.085Z,6.71
2018-12-18T07:07:02.671Z,6.64
2018-12-18T07:08:01.366Z,6.64
2018-12-18T07:09:00.101Z,6.55
2018-12-18T07:09:58.716Z,6.48
2018-12-18T07:12:39.052Z,6.59
2018-12-18T07:13:37.607Z,6.55
2018-12-18T07:14:36.161Z,6.58
2018-12-18T07:15:34.742Z,6.44
2018-12-18T07:16:40.140Z,6.54
2018-12-18T07:17:38.680Z,6.46
2018-12-18T07:18:37.320Z,6.59
2018-12-18T07:19:36.123Z,6.59
2018-12-18T07:20:34.720Z,6.67
2018-12-18T07:21:33.388Z,6.76
2018-12-18T07:22:32.081Z,6.67
2018-12-18T07:23:30.599Z,6.69
2018-12-18T07:24:29.173Z,6.74
2018-12-18T07:25:27.809Z,6.8
2018-12-18T07:26:26.335Z,6.85
2018-12-18T07:27:24.863Z,6.77
2018-12-18T07:28:23.601Z,6.79
2018-12-18T07:29:22.345Z,6.8
2018-12-18T07:30:20.876Z,6.7
2018-12-18T07:31:19.592Z,6.64
2018-12-18T07:32:18.264Z,6.69
2018-12-18T07:33:16.807Z,6.69
2018-12-18T07:34:15.362Z,6.73
2018-12-18T07:35:13.923Z,6.8
2018-12-18T07:36:12.467Z,6.81
2018-12-18T07:37:11.099Z,6.97
2018-12-18T07:38:09.811Z,7.35
2018-12-18T07:39:08.493Z,7.52
2018-12-18T07:40:07.167Z,7.67
2018-12-18T07:41:05.861Z,7.85
2018-12-18T07:42:04.398Z,7.77
2018-12-18T07:43:03.001Z,7.52
2018-12-18T07:44:01.589Z,7.32
2018-12-18T07:45:00.250Z,7.27
2018-12-18T07:45:58.821Z,7.06
2018-12-18T07:46:58.723Z,7.21
2018-12-18T07:47:56.315Z,7.15
2018-12-18T07:48:54.888Z,7.24
2018-12-18T07:49:53.651Z,7.24
2018-12-18T07:50:52.242Z,7.23
2018-12-18T07:51:50.797Z,7.28
2018-12-18T07:52:49.476Z,7.35
2018-12-18T07:53:48.121Z,7.35
2018-12-18T07:54:46.730Z,7.27
2018-12-18T07:55:45.483Z,7.43
2018-12-18T07:56:44.201Z,7.42
2018-12-18T07:57:42.774Z,7.39
2018-12-18T07:58:41.395Z,7.37
2018-12-18T07:59:40.094Z,7.45
2018-12-18T08:00:38.754Z,7.49
2018-12-18T08:01:37.583Z,7.55
2018-12-18T08:02:36.294Z,7.53
2018-12-18T08:03:34.814Z,7.6
2018-12-18T08:04:33.402Z,7.63
2018-12-18T08:05:32.018Z,7.58
2018-12-18T08:06:30.539Z,7.58
2018-12-18T08:07:29.118Z,7.5
2018-12-18T08:08:28.008Z,7.46
2018-12-18T08:09:26.616Z,7.52
2018-12-18T08:10:25.251Z,7.53
2018-12-18T08:11:24.003Z,7.52
2018-12-18T08:12:22.620Z,7.95
2018-12-18T08:13:21.294Z,8.1
2018-12-18T08:14:20.100Z,8.08
2018-12-18T08:17:00.238Z,8.15
2018-12-18T08:17:58.790Z,7.87
2018-12-18T08:18:57.402Z,7.68
2018-12-18T08:19:55.987Z,7.68
2018-12-18T08:20:54.577Z,7.69
2018-12-18T08:21:53.288Z,7.77
2018-12-18T08:22:52.194Z,8.07
2018-12-18T08:23:50.744Z,8.22
2018-12-18T08:24:49.443Z,8.3
2018-12-18T08:25:47.972Z,8.36
2018-12-18T08:26:46.592Z,8.3
2018-12-18T08:27:45.103Z,8.15
2018-12-18T08:28:43.655Z,8.04
2018-12-18T08:29:42.183Z,7.63
2018-12-18T08:30:40.729Z,7.55
2018-12-18T08:31:39.519Z,7.58
2018-12-18T08:32:38.177Z,7.5
2018-12-18T08:35:18.221Z,7.53
2018-12-18T08:36:16.781Z,7.85
2018-12-18T08:37:15.448Z,8.12
2018-12-18T08:38:14.127Z,8.3
2018-12-18T08:39:12.655Z,8.41
2018-12-18T08:40:11.175Z,8.44
2018-12-18T08:41:09.712Z,8.38
2018-12-18T08:42:08.351Z,8.26
2018-12-18T08:43:06.993Z,8.1
2018-12-18T08:45:30.058Z,7.79
2018-12-18T08:46:28.622Z,7.77
2018-12-18T08:47:27.210Z,7.75
2018-12-18T08:48:25.706Z,7.9
2018-12-18T08:49:24.322Z,7.82
2018-12-18T08:50:23.574Z,7.85
2018-12-18T08:51:22.173Z,7.77
2018-12-18T08:52:20.720Z,7.87
2018-12-18T08:53:19.236Z,7.82
2018-12-18T08:54:17.809Z,8
2018-12-18T08:55:16.403Z,8.45
2018-12-18T08:56:15.130Z,8.07
2018-12-18T08:57:13.907Z,8.62
2018-12-18T08:58:12.456Z,8.47
2018-12-18T08:59:11.065Z,8.19
2018-12-18T09:00:09.734Z,7.89
2018-12-18T09:01:08.288Z,7.89
2018-12-18T09:02:06.831Z,7.89
2018-12-18T09:03:05.358Z,7.89
2018-12-18T09:04:03.893Z,7.89
2018-12-18T09:05:02.451Z,8.05
2018-12-18T09:06:00.990Z,8
2018-12-18T09:06:59.556Z,8.07
2018-12-18T09:07:58.132Z,8.02
2018-12-18T09:08:56.662Z,8.02
2018-12-18T09:09:55.414Z,8.07
2018-12-18T09:10:54.190Z,8.05
2018-12-18T09:11:52.764Z,8.15
2018-12-18T09:12:51.484Z,8.71
2018-12-18T09:13:50.029Z,9.02
2018-12-18T09:14:48.574Z,8.94
2018-12-18T09:15:47.106Z,8.87
2018-12-18T09:16:45.721Z,8.65
2018-12-18T09:17:44.285Z,8.41
2018-12-18T09:18:42.865Z,8.38
2018-12-18T09:19:41.551Z,8.33
2018-12-18T09:20:40.248Z,8.34
2018-12-18T09:21:38.768Z,8.43
2018-12-18T09:22:37.508Z,8.43
2018-12-18T09:23:36.254Z,8.43
2018-12-18T09:24:34.738Z,8.44
2018-12-18T09:25:33.381Z,8.56
2018-12-18T09:26:31.871Z,8.56
2018-12-18T09:27:30.442Z,8.47
2018-12-18T09:28:28.950Z,8.44
2018-12-18T09:29:27.676Z,8.47
2018-12-18T09:30:26.373Z,8.65
2018-12-18T09:31:25.123Z,8.47
2018-12-18T09:32:23.753Z,8.52
2018-12-18T09:33:22.482Z,8.52
2018-12-18T09:34:21.094Z,8.47
2018-12-18T09:35:19.823Z,8.38
2018-12-18T09:36:18.420Z,8.29
2018-12-18T09:37:17.276Z,8.4
2018-12-18T09:38:15.960Z,8.48
2018-12-18T09:39:14.482Z,8.52
2018-12-18T09:40:13.025Z,8.56
2018-12-18T09:41:11.683Z,8.56
2018-12-18T09:42:10.207Z,8.61
2018-12-18T09:43:08.703Z,8.5
2018-12-18T09:44:07.403Z,8.65
2018-12-18T09:45:06.333Z,8.62
2018-12-18T09:46:04.917Z,9.1
2018-12-18T09:47:03.549Z,9.96
2018-12-18T09:48:02.154Z,10.04
2018-12-18T09:49:00.719Z,10.53
2018-12-18T09:49:59.353Z,10.6
2018-12-18T09:50:58.122Z,10.4
2018-12-18T09:51:56.678Z,9.76
2018-12-18T09:52:55.579Z,9.42
2018-12-18T09:53:54.186Z,9.1
2018-12-18T09:54:52.820Z,9.1
2018-12-18T09:55:51.506Z,9.14
2018-12-18T09:56:50.240Z,9.79
2018-12-18T09:57:48.786Z,10.11
2018-12-18T09:58:49.564Z,10.18
2018-12-18T09:59:48.269Z,9.75
2018-12-18T10:00:46.849Z,9.71
2018-12-18T10:01:45.613Z,9.47
2018-12-18T10:02:44.339Z,9.24
2018-12-18T10:03:42.921Z,9.17
2018-12-18T10:04:41.589Z,8.99
2018-12-18T10:05:40.244Z,8.94
2018-12-18T10:06:38.802Z,8.76
2018-12-18T10:07:37.309Z,8.86
2018-12-18T10:08:35.888Z,8.81
2018-12-18T10:09:34.422Z,8.84
2018-12-18T10:10:33.073Z,8.95
2018-12-18T10:11:31.774Z,8.83
2018-12-18T10:12:30.459Z,8.89
2018-12-18T10:13:29.207Z,8.77
2018-12-18T10:14:27.976Z,8.83
2018-12-18T10:15:26.597Z,8.71
2018-12-18T10:16:25.302Z,8.76
2018-12-18T10:17:24.138Z,8.83
2018-12-18T10:18:22.737Z,8.8
2018-12-18T10:19:21.314Z,9.47
2018-12-18T10:20:20.024Z,9.5
2018-12-18T10:21:18.625Z,9.78
2018-12-18T10:22:17.438Z,9.79
2018-12-18T10:23:16.264Z,9.83
2018-12-18T10:24:14.885Z,9.54
2018-12-18T10:25:13.547Z,9.5
2018-12-18T10:26:12.218Z,9.38
2018-12-18T10:27:10.802Z,9.36
2018-12-18T10:28:09.513Z,9.35
2018-12-18T10:29:08.147Z,9.31
2018-12-18T10:30:06.762Z,9.39
2018-12-18T10:31:05.455Z,9.35
2018-12-18T10:32:04.224Z,9.4
2018-12-18T10:33:02.772Z,9.35
2018-12-18T10:34:01.350Z,9.5
2018-12-18T10:34:59.945Z,9.51
2018-12-18T10:36:02.879Z,9.58
2018-12-18T10:36:57.038Z,9.68
2018-12-18T10:37:56.078Z,9.69
2018-12-18T10:38:54.625Z,9.99
2018-12-18T10:39:53.179Z,9.94
2018-12-18T10:40:51.841Z,10.36
2018-12-18T10:41:50.363Z,10.14
2018-12-18T10:42:48.987Z,10.66
2018-12-18T10:43:47.747Z,10.36
2018-12-18T10:44:46.529Z,9.84
2018-12-18T10:45:45.232Z,9.84
2018-12-18T10:46:43.914Z,9.76
2018-12-18T10:47:42.485Z,9.75
2018-12-18T10:48:41.031Z,9.81
2018-12-18T10:49:39.552Z,9.9
2018-12-18T10:50:38.391Z,9.91
2018-12-18T10:51:36.994Z,9.86
2018-12-18T10:52:35.815Z,10.23
2018-12-18T10:53:34.418Z,10.53
2018-12-18T10:54:33.104Z,10.44
2018-12-18T10:55:31.822Z,10.52
2018-12-18T10:56:30.282Z,10.71
2018-12-18T10:57:28.830Z,10.61
2018-12-18T10:58:27.580Z,10.53
2018-12-18T10:59:26.576Z,10.4
2018-12-18T11:00:25.162Z,10.33
2018-12-18T11:01:23.691Z,10.3
2018-12-18T11:02:22.494Z,10.25
2018-12-18T11:03:21.060Z,10.29
2018-12-18T11:04:19.973Z,10.15
2018-12-18T11:05:18.534Z,10.23
2018-12-18T11:07:58.983Z,10.25
2018-12-18T11:08:57.971Z,10.18
2018-12-18T11:09:56.675Z,10.14
2018-12-18T11:10:55.198Z,10.38
2018-12-18T11:11:53.725Z,10.33
2018-12-18T11:12:52.371Z,10.41
2018-12-18T11:13:50.945Z,10.23
2018-12-18T11:14:49.626Z,10.4
2018-12-18T11:15:48.258Z,10.48
2018-12-18T11:16:46.775Z,10.47
2018-12-18T11:17:45.560Z,10.52
2018-12-18T11:18:44.261Z,10.38
2018-12-18T11:19:42.841Z,10.78
2018-12-18T11:20:41.413Z,11.19
2018-12-18T11:21:39.936Z,10.99
2018-12-18T11:22:38.524Z,11
2018-12-18T11:23:37.096Z,11.27
2018-12-18T11:26:17.621Z,11.4
2018-12-18T11:29:38.873Z,11.24
2018-12-18T11:30:37.547Z,11.21
2018-12-18T11:31:36.257Z,11.04
2018-12-18T11:32:34.825Z,11.03
2018-12-18T11:33:33.569Z,11.07
2018-12-18T11:34:32.241Z,11.1
2018-12-18T11:35:30.770Z,11.06
2018-12-18T11:36:29.316Z,11.09
2018-12-18T11:37:27.863Z,11.06
2018-12-18T11:38:26.397Z,10.94
2018-12-18T11:39:24.967Z,10.89
2018-12-18T11:40:23.545Z,10.99
2018-12-18T11:41:22.068Z,10.82
2018-12-18T11:42:20.633Z,10.82
2018-12-18T11:43:19.303Z,10.89
2018-12-18T11:44:17.888Z,10.97
2018-12-18T11:45:16.486Z,11
2018-12-18T11:46:15.020Z,11.06
2018-12-18T11:47:13.808Z,11.06
2018-12-18T11:48:12.341Z,11
2018-12-18T11:49:10.905Z,11.19
2018-12-18T11:50:09.575Z,11.21
2018-12-18T11:51:08.129Z,11.22
2018-12-18T11:52:06.700Z,11.18
2018-12-18T11:53:05.343Z,11.19
2018-12-18T11:54:04.024Z,11.18
2018-12-18T11:55:02.606Z,11.17
2018-12-18T11:56:01.384Z,11.09
2018-12-18T11:57:00.075Z,11.03
2018-12-18T11:57:58.865Z,11.06
2018-12-18T11:58:57.565Z,10.96
2018-12-18T11:59:56.277Z,10.94
2018-12-18T12:00:54.851Z,10.82
2018-12-18T12:01:53.549Z,10.92
2018-12-18T12:02:52.409Z,10.84
2018-12-18T12:03:50.883Z,10.84
2018-12-18T12:04:49.615Z,10.79
2018-12-18T12:05:48.342Z,10.88
2018-12-18T12:06:46.864Z,10.81
2018-12-18T12:07:45.604Z,10.88
2018-12-18T12:08:44.339Z,10.79
2018-12-18T12:09:42.873Z,10.82
2018-12-18T12:10:41.542Z,10.86
2018-12-18T12:11:40.410Z,10.92
2018-12-18T12:12:38.849Z,10.82
2018-12-18T12:13:37.746Z,10.82
2018-12-18T12:14:36.576Z,10.94
2018-12-18T12:15:35.179Z,10.86
2018-12-18T12:16:34.037Z,10.78
2018-12-18T12:17:32.632Z,10.85
2018-12-18T12:18:31.355Z,10.81
2018-12-18T12:19:29.927Z,10.78
2018-12-18T12:20:28.536Z,10.7
2018-12-18T12:21:27.103Z,10.82
2018-12-18T12:22:25.603Z,10.84
2018-12-18T12:23:24.180Z,10.79
2018-12-18T12:24:22.756Z,10.79
2018-12-18T12:25:21.486Z,10.78
2018-12-18T12:26:20.021Z,10.79
2018-12-18T12:27:18.591Z,10.94
2018-12-18T12:28:17.324Z,11.07
2018-12-18T12:29:15.983Z,11.15
2018-12-18T12:30:14.557Z,11.17
2018-12-18T12:31:13.142Z,11.35
2018-12-18T12:32:11.694Z,11.25
2018-12-18T12:33:10.268Z,11.33
2018-12-18T12:34:08.832Z,11.35
2018-12-18T12:35:07.511Z,11.4
2018-12-18T12:36:06.166Z,11.46
2018-12-18T12:37:04.830Z,11.44
2018-12-18T12:38:03.591Z,11.47
2018-12-18T12:39:02.277Z,11.52
2018-12-18T12:40:00.869Z,11.58
2018-12-18T12:40:59.415Z,11.52
2018-12-18T12:41:57.928Z,11.57
2018-12-18T12:42:56.499Z,11.57
2018-12-18T12:43:55.083Z,11.51
2018-12-18T12:44:53.810Z,11.6
2018-12-18T12:45:52.521Z,11.57
2018-12-18T12:46:51.149Z,11.7
2018-12-18T12:47:51.809Z,11.55
2018-12-18T12:48:50.403Z,11.73
2018-12-18T12:49:48.937Z,11.75
2018-12-18T12:50:47.554Z,11.8
2018-12-18T12:51:46.093Z,11.85
2018-12-18T12:52:44.663Z,11.73
2018-12-18T12:53:43.288Z,11.75
2018-12-18T12:54:42.266Z,11.85
2018-12-18T12:55:40.804Z,11.78
2018-12-18T12:56:39.408Z,11.73
2018-12-18T12:57:37.963Z,11.86
2018-12-18T12:58:36.509Z,11.82
2018-12-18T12:59:35.056Z,11.86
2018-12-18T13:00:33.651Z,11.91
2018-12-18T13:01:32.226Z,11.96
2018-12-18T13:02:30.750Z,11.78
2018-12-18T13:03:29.581Z,11.85
2018-12-18T13:04:28.364Z,12.01
2018-12-18T13:05:26.860Z,11.96
2018-12-18T13:06:25.629Z,11.86
2018-12-18T13:07:24.281Z,11.8
2018-12-18T13:08:22.847Z,11.79
2018-12-18T13:09:21.392Z,11.82
2018-12-18T13:10:20.104Z,11.9
2018-12-18T13:11:18.602Z,11.73
2018-12-18T13:12:17.125Z,11.82
2018-12-18T13:13:16.171Z,11.8
2018-12-18T13:14:14.748Z,11.8
2018-12-18T13:15:13.374Z,11.91
2018-12-18T13:16:11.911Z,11.99
2018-12-18T13:17:10.518Z,11.98
2018-12-18T13:18:09.034Z,11.98
2018-12-18T13:19:07.590Z,11.88
2018-12-18T13:20:06.270Z,11.82
2018-12-18T13:21:04.851Z,11.65